createdAt,value
2023-05-21T00:03:16.369Z,6.68
2023-05-21T00:08:19.339Z,6.00
2023-05-21T00:13:23.800Z,5.40
2023-05-21T00:18:26.593Z,5.00
2023-05-21T00:23:32.573Z,4.50
2023-05-21T00:28:36.765Z,9.75
2023-05-21T00:33:39.604Z,6.45
2023-05-21T00:38:44.093Z,5.20
2023-05-21T00:43:50.240Z,5.72
2023-05-21T00:48:53.540Z,5.45
2023-05-21T00:53:56.645Z,5.43
2023-05-21T00:59:05.488Z,6.55
2023-05-21T01:04:08.303Z,5.95
2023-05-21T01:09:12.184Z,6.38
2023-05-21T01:14:18.911Z,3.80
2023-05-21T01:19:23.602Z,6.18
2023-05-21T01:24:28.069Z,7.45
2023-05-21T01:29:30.927Z,6.03
2023-05-21T01:34:39.941Z,6.97
2023-05-21T01:39:53.330Z,6.00
2023-05-21T01:44:58.156Z,7.80
2023-05-21T01:50:01.500Z,4.55
2023-05-21T01:55:06.324Z,8.20
2023-05-21T02:00:10.847Z,7.45
2023-05-21T02:05:18.583Z,5.38
2023-05-21T02:10:22.784Z,7.95
2023-05-21T02:15:25.860Z,5.43
2023-05-21T02:20:28.911Z,7.00
2023-05-21T02:25:33.507Z,5.75
2023-05-21T02:30:36.677Z,6.82
2023-05-21T02:35:39.445Z,5.47
2023-05-21T02:40:44.046Z,6.35
2023-05-21T02:45:47.528Z,6.30
2023-05-21T02:50:50.779Z,4.75
2023-05-21T02:55:54.970Z,6.93
2023-05-21T03:00:57.882Z,6.22
2023-05-21T03:06:00.744Z,4.47
2023-05-21T03:11:05.880Z,6.63
2023-05-21T03:16:08.869Z,6.72
2023-05-21T03:21:13.203Z,6.07
2023-05-21T03:26:17.908Z,7.47
2023-05-21T03:31:21.383Z,7.13
2023-05-21T03:36:34.769Z,6.05
2023-05-21T03:41:40.604Z,7.50
2023-05-21T03:46:46.894Z,8.10
2023-05-21T03:52:02.036Z,5.90
2023-05-21T03:57:06.861Z,8.35
2023-05-21T04:02:10.114Z,8.25
2023-05-21T04:07:15.238Z,8.10
2023-05-21T04:12:20.137Z,9.52
2023-05-21T04:17:26.861Z,8.73
2023-05-21T04:22:30.157Z,8.32
2023-05-21T04:27:34.592Z,13.15
2023-05-21T04:32:38.388Z,7.78
2023-05-21T04:37:45.888Z,7.28
2023-05-21T04:42:51.764Z,10.82
2023-05-21T04:48:00.798Z,8.10
2023-05-21T04:53:05.020Z,8.73
2023-05-21T04:58:10.945Z,9.20
2023-05-21T05:03:14.715Z,7.78
2023-05-21T05:08:19.500Z,10.30
2023-05-21T05:13:24.851Z,8.02
2023-05-21T05:18:27.989Z,9.02
2023-05-21T05:23:31.066Z,8.00
2023-05-21T05:28:35.552Z,8.18
2023-05-21T05:33:38.518Z,7.38
2023-05-21T05:38:41.447Z,5.97
2023-05-21T05:43:45.714Z,8.55
2023-05-21T05:48:49.104Z,5.90
2023-05-21T05:53:52.200Z,9.57
2023-05-21T05:58:56.842Z,8.60
2023-05-21T06:04:00.682Z,9.60
2023-05-21T06:09:03.838Z,8.00
2023-05-21T06:14:08.073Z,9.15
2023-05-21T06:19:11.025Z,8.40
2023-05-21T06:24:13.890Z,7.45
2023-05-21T06:29:18.158Z,7.72
2023-05-21T06:34:22.897Z,9.55
2023-05-21T06:39:27.174Z,10.45
2023-05-21T06:44:32.596Z,10.30
2023-05-21T06:49:52.065Z,12.20
2023-05-21T06:54:54.873Z,13.45
2023-05-21T07:00:00.788Z,9.40
2023-05-21T07:05:03.922Z,10.70
2023-05-21T07:10:08.345Z,8.57
2023-05-21T07:15:13.074Z,12.65
2023-05-21T07:20:16.121Z,10.52
2023-05-21T07:25:23.728Z,12.00
2023-05-21T07:30:28.064Z,9.52
2023-05-21T07:35:33.906Z,12.85
2023-05-21T07:40:37.049Z,10.10
2023-05-21T07:45:41.981Z,9.52
2023-05-21T07:50:47.977Z,10.65
2023-05-21T07:55:51.275Z,9.98
2023-05-21T08:01:00.723Z,11.50
2023-05-21T08:06:04.962Z,12.90
2023-05-21T08:11:09.216Z,14.10
2023-05-21T08:16:15.592Z,14.15
2023-05-21T08:21:19.035Z,13.23
2023-05-21T08:26:22.142Z,13.20
2023-05-21T08:31:26.469Z,16.52
2023-05-21T08:36:31.588Z,16.02
2023-05-21T08:41:40.828Z,15.88
2023-05-21T08:46:51.164Z,17.70
2023-05-21T08:51:55.144Z,16.92
2023-05-21T08:57:00.548Z,15.82
2023-05-21T09:02:06.261Z,16.70
2023-05-21T09:07:12.544Z,18.77
2023-05-21T09:12:36.217Z,16.35
2023-05-21T09:17:40.998Z,17.70
2023-05-21T09:23:12.516Z,19.73
2023-05-21T09:28:17.338Z,16.70
2023-05-21T09:33:30.730Z,17.60
2023-05-21T09:38:38.175Z,18.00
2023-05-21T09:43:43.587Z,17.47
2023-05-21T09:48:48.131Z,17.73
2023-05-21T09:53:55.902Z,22.63
2023-05-21T09:59:01.438Z,16.13
2023-05-21T10:04:08.424Z,15.50
2023-05-21T10:09:12.115Z,19.63
2023-05-21T10:14:17.448Z,19.45
2023-05-21T10:19:23.644Z,18.17
2023-05-21T10:24:28.230Z,16.53
2023-05-21T10:29:33.159Z,17.58
2023-05-21T10:34:39.484Z,17.15
2023-05-21T10:39:45.896Z,18.38
2023-05-21T10:45:07.132Z,16.63
2023-05-21T10:50:28.009Z,16.42
2023-05-21T10:55:43.882Z,17.98
2023-05-21T11:00:46.989Z,14.73
2023-05-21T11:05:56.338Z,18.48
2023-05-21T11:10:59.786Z,18.80
2023-05-21T11:16:07.962Z,17.23
2023-05-21T11:21:13.565Z,13.70
2023-05-21T11:26:16.958Z,16.80
2023-05-21T11:31:24.692Z,15.85
2023-05-21T11:36:29.068Z,14.48
2023-05-21T11:41:32.017Z,18.08
2023-05-21T11:46:36.118Z,15.93
2023-05-21T11:51:41.527Z,15.60
2023-05-21T11:56:44.720Z,12.35
2023-05-21T12:01:47.697Z,17.10
2023-05-21T12:06:51.941Z,13.30
2023-05-21T12:11:54.886Z,17.63
2023-05-21T12:16:58.758Z,14.20
2023-05-21T12:22:04.406Z,14.20
2023-05-21T12:27:13.127Z,12.18
2023-05-21T12:32:17.297Z,13.90
2023-05-21T12:37:24.313Z,15.82
2023-05-21T12:42:28.212Z,13.80
2023-05-21T12:47:32.873Z,15.05
2023-05-21T12:52:37.152Z,15.35
2023-05-21T12:57:40.040Z,14.18
2023-05-21T13:02:45.841Z,12.95
2023-05-21T13:07:51.630Z,14.07
2023-05-21T13:12:54.498Z,15.55
2023-05-21T13:18:02.021Z,20.83
2023-05-21T13:28:15.079Z,12.18
2023-05-21T13:33:18.128Z,13.82
2023-05-21T13:38:22.406Z,13.95
2023-05-21T13:43:25.391Z,13.30
2023-05-21T13:48:28.223Z,16.15
2023-05-21T13:53:32.425Z,16.15
2023-05-21T13:58:35.671Z,12.95
2023-05-21T14:03:38.529Z,11.38
2023-05-21T14:08:44.761Z,14.02
2023-05-21T14:13:48.210Z,14.77
2023-05-21T14:18:51.041Z,13.05
2023-05-21T14:23:55.155Z,12.77
2023-05-21T14:28:57.993Z,13.55
2023-05-21T14:34:03.712Z,15.30
2023-05-21T14:39:07.879Z,13.38
2023-05-21T14:44:16.679Z,11.23
2023-05-21T14:49:19.608Z,11.18
2023-05-21T14:54:23.791Z,13.45
2023-05-21T14:59:29.821Z,13.93
2023-05-21T15:04:32.732Z,11.63
2023-05-21T15:09:39.939Z,12.57
2023-05-21T15:14:42.724Z,10.65
2023-05-21T15:19:45.522Z,13.82
2023-05-21T15:24:49.760Z,10.77
2023-05-21T15:29:53.040Z,11.93
2023-05-21T15:34:56.004Z,12.85
2023-05-21T15:40:00.405Z,11.73
2023-05-21T15:45:03.490Z,11.00
2023-05-21T15:50:07.518Z,12.85
2023-05-21T15:55:13.806Z,10.88
2023-05-21T16:00:17.268Z,9.30
2023-05-21T16:05:21.211Z,11.45
2023-05-21T16:10:25.706Z,9.88
2023-05-21T16:15:32.282Z,12.25
2023-05-21T16:20:35.414Z,9.35
2023-05-21T16:25:39.907Z,11.75
2023-05-21T16:30:42.923Z,11.30
2023-05-21T16:35:46.407Z,12.15
2023-05-21T16:40:50.774Z,11.88
2023-05-21T16:45:53.701Z,10.15
2023-05-21T16:50:56.755Z,13.75
2023-05-21T16:56:00.932Z,12.75
2023-05-21T17:01:04.006Z,11.85
2023-05-21T17:06:07.516Z,9.65
2023-05-21T17:11:11.904Z,12.60
2023-05-21T17:16:14.900Z,10.40
2023-05-21T17:21:19.428Z,10.60
2023-05-21T17:26:23.589Z,8.98
2023-05-21T17:31:26.519Z,11.63
2023-05-21T17:36:29.365Z,11.95
2023-05-21T17:41:33.740Z,11.85
2023-05-21T17:46:36.603Z,13.27
2023-05-21T17:51:39.872Z,13.15
2023-05-21T17:56:46.233Z,11.85
2023-05-21T18:01:49.954Z,9.83
2023-05-21T18:06:52.825Z,11.13
2023-05-21T18:11:58.370Z,11.27
2023-05-21T18:17:02.403Z,10.70
2023-05-21T18:22:05.992Z,12.20
2023-05-21T18:27:10.434Z,11.77
2023-05-21T18:32:15.331Z,11.52
2023-05-21T18:37:18.722Z,13.73
2023-05-21T18:42:23.309Z,12.35
2023-05-21T18:47:26.414Z,12.70
2023-05-21T19:05:48.256Z,14.63
2023-05-21T19:10:52.875Z,13.23
2023-05-21T19:15:57.609Z,17.02
2023-05-21T19:21:04.533Z,15.77
2023-05-21T19:26:07.729Z,13.80
2023-05-21T19:31:10.963Z,17.35
2023-05-21T19:36:15.459Z,13.52
2023-05-21T19:41:19.085Z,13.05
2023-05-21T19:46:22.044Z,13.73
2023-05-21T19:51:26.349Z,15.02
2023-05-21T19:56:29.147Z,12.45
2023-05-21T20:01:35.381Z,14.88
2023-05-21T20:06:40.304Z,15.52
2023-05-21T20:11:43.514Z,15.35
2023-05-21T20:16:47.023Z,14.70
2023-05-21T20:21:51.331Z,15.20
2023-05-21T20:26:54.840Z,14.15
2023-05-21T20:31:57.642Z,13.32
2023-05-21T20:37:02.389Z,12.07
2023-05-21T20:42:08.591Z,12.30
2023-05-21T20:47:11.714Z,13.50
2023-05-21T20:52:16.015Z,15.57
2023-05-21T20:57:18.807Z,17.25
2023-05-21T21:02:22.890Z,14.52
2023-05-21T21:07:30.491Z,13.95
2023-05-21T21:12:33.256Z,16.02
2023-05-21T21:17:36.095Z,14.95
2023-05-21T21:22:40.427Z,13.48
2023-05-21T21:27:43.757Z,13.23
2023-05-21T21:32:47.462Z,15.85
2023-05-21T21:37:51.706Z,13.52
2023-05-21T21:42:54.475Z,15.95
2023-05-21T21:47:57.429Z,13.90
2023-05-21T21:53:03.635Z,13.82
2023-05-21T21:58:06.720Z,12.65
2023-05-21T22:03:10.697Z,13.25
2023-05-21T22:08:16.764Z,12.68
2023-05-21T22:13:19.572Z,11.65
2023-05-21T22:18:38.679Z,12.88
2023-05-21T22:23:45.112Z,11.13
2023-05-21T22:28:47.890Z,11.82
2023-05-21T22:33:50.750Z,11.57
2023-05-21T22:38:54.971Z,11.13
2023-05-21T22:43:57.893Z,11.65
2023-05-21T22:49:00.646Z,11.70
2023-05-21T22:54:05.068Z,11.85
2023-05-21T22:59:07.896Z,13.52
2023-05-21T23:04:10.634Z,10.85
2023-05-21T23:09:15.010Z,12.40
2023-05-21T23:14:17.801Z,12.02
2023-05-21T23:19:21.115Z,9.77
2023-05-21T23:24:25.342Z,10.82
2023-05-21T23:29:28.294Z,10.73
2023-05-21T23:34:31.047Z,9.95
2023-05-21T23:39:35.250Z,10.90
2023-05-21T23:44:38.003Z,10.45
2023-05-21T23:49:40.827Z,11.25
2023-05-21T23:54:45.249Z,11.25
2023-05-21T23:59:48.128Z,10.40
